KACY

Atlantic City International Airport

Atlantic City, New Jersey, USA
KACY 240535Z 2406/2506 30010KT P6SM SKC FM241300 31016G28KT P6SM SCT050 FM242200 31010G18KT P6SM FEW050 FM250100 32006KT P6SM SKC
Issued Valid From Valid To
Oct-24 @ 05:35 UTC
(17 minutes ago)
Oct-24 @ 06:00 UTC
(in 8 minutes)
Oct-25 @ 06:00 UTC
(in 24 hours)
Oct-24 @ 06:00 to Oct-24 @ 13:00
KACY 240535Z 2406/2506 30010KT P6SM SKC
Wind Visibility Clouds
300° at 10 knots Greater than 6 miles
  • Clear skies
From Oct-24 @ 13:00 to Oct-24 @ 22:00
FM241300 31016G28KT P6SM SCT050
Wind Visibility Clouds
310° at 16 knots
 Gusting to 28 knots
Greater than 6 miles
  • Scattered at 5,000' AGL
From Oct-24 @ 22:00 to Oct-25 @ 01:00
FM242200 31010G18KT P6SM FEW050
Wind Visibility Clouds
310° at 10 knots
 Gusting to 18 knots
Greater than 6 miles
  • Few at 5,000' AGL
From Oct-25 @ 01:00 to Oct-25 @ 06:00
FM250100 32006KT P6SM SKC
Wind Visibility Clouds
320° at 6 knots Greater than 6 miles
  • Clear skies
KACY 240535Z 2406/2506 30010KT P6SM SKC FM241300 31016G28KT P6SM SCT050 FM242200 31010G18KT P6SM FEW050 FM250100 32006KT P6SM SKC
Issued Oct-24 @ 05:35 UTC
(17 minutes ago)
Valid From Oct-24 @ 06:00 UTC
(in 8 minutes)
Valid To Oct-25 @ 06:00 UTC
(in 24 hours)
Oct-24 @ 06:00 - Oct-24 @ 13:00
Wind Visibility
300° at 10 knots Greater than 6 miles
Clouds
  • Clear skies
From Oct-24 @ 13:00 - Oct-24 @ 22:00
Wind Visibility
310° at 16 knots
 Gusting to 28 knots
Greater than 6 miles
Clouds
  • Scattered at 5,000' AGL
From Oct-24 @ 22:00 - Oct-25 @ 01:00
Wind Visibility
310° at 10 knots
 Gusting to 18 knots
Greater than 6 miles
Clouds
  • Few at 5,000' AGL
From Oct-25 @ 01:00 - Oct-25 @ 06:00
Wind Visibility
320° at 6 knots Greater than 6 miles
Clouds
  • Clear skies